Williams, Minnesota
Current Conditions -  °F | °C
As of 7:53 AM on Thursday 23 Oct 2014 (Local Time) from KBDE Reporting Station
Broken Clouds Broken Clouds  
Wind Chill: 43°   Ceiling: 500
Heat Index: 47°   Visibility: 9mi
Dew Point: 45°   Wind: 8mph
Humidity: 93%   Direction: 210°SSW
Pressure: 29.85"   Gusts: NA
Location:  48.77°N, 94.96°W
Report Text: KBDE 231253Z AUTO 21007KT 9SM BKN005 08/07 A2985 RMK AO2 SLP114 T00830072 TSNO
Loading
Personal Weather Stations






























Interactive Weather Map
Tropical Storm Tracking
New forecast layout! Learn more

10-Day Weather Forecast

Advertisements
Track Severe Weather on mobile